Carbondale, CO (81623)

1:17 PM MDT on August 29, 2015 (GMT -0600)
Spring Park Ridge | | Change Station
CLOSE
Current Station
Personal Weather Station
Location: Carbondale, CO
Elevation: 7628 ft
Nearby Weather Stations

Elev 7628 ft 39.45 °N, 107.12 °W | Updated 14 minutes ago

Mostly Cloudy
Mostly Cloudy
76.0 °F
Feels Like 78 °F
N
4.0
Wind Variable Wind from WSW
Gusts 9.0 mph

Today
High -- | Low -- °F
--% Chance of Precip.
Yesterday
High -- | Low -- °F
Precip. -- in
6:34 AM 7:44 PM
Full, 100% visible
Pressure 30.66 in
Visibility 10.0 miles
Clouds Scattered Clouds 4500 ft
Mostly Cloudy 5500 ft
Mostly Cloudy 7000 ft
Heat Index 78 °F
Dew Point 49 °F
Humidity 39%
Rainfall 0.00 in
Snow Depth Not available.
UV 6 out of 12
Pollen 9.90 out of 12
Air Quality Not available.
Flu Activity Not available.
METAR K5SM 291912Z AUTO 35003KT 10SM SCT045 BKN055 BKN070 16/06 A3066 RMK AO2 LTG DSNT S
Pressure 30.66 in
Visibility 10.0 miles
Clouds Scattered Clouds 4500 ft
Mostly Cloudy 5500 ft
Mostly Cloudy 7000 ft
Heat Index 78 °F
Dew Point 49 °F
Humidity 39%
Rainfall 0.00 in
Snow Depth Not available.
UV 6 out of 12
Pollen 9.90 out of 12
Air Quality Not available.
Flu Activity Not available.
METAR K5SM 291912Z AUTO 35003KT 10SM SCT045 BKN055 BKN070 16/06 A3066 RMK AO2 LTG DSNT S

10-Day Weather Forecast

×

Almanac

Astronomy

Aug. 29, 2015 Rise Set
Actual Time
Civil Twilight
Nautical Twilight
Astronomical Twilight
Moon
Length of Visible Light
Length of Day
Tomorrow will be .
, % of the Moon is Illuminated

Today's Extremes

State Highs State Lows

Community

WunderPhotos

Upload Photos

1,850,778 photos uploaded!

WunderBlogs® & News

Nearby

Air Quality

  Air Quality AQ Index Pollutant
Not available.

Snow Depth

Station Depth Elevation

Earthquake Activity

City Distance Mag. Time & Date
Minimum magnitude displayed is 2.5.

Coastal Water Temperatures

Place Temperature

Stations

Nearby Weather Stations

Station Location Temp. Windchill Dew Point Humidity Wind Precip. Elev Updated Type